createdAt,value
2018-07-31T00:00:10.649Z,637
2018-07-31T00:01:17.583Z,637
2018-07-31T00:02:24.799Z,637
2018-07-31T00:03:31.874Z,637
2018-07-31T00:04:39.168Z,637
2018-07-31T00:05:46.381Z,638
2018-07-31T00:06:53.593Z,638
2018-07-31T00:08:00.809Z,639
2018-07-31T00:09:08.020Z,639
2018-07-31T00:10:15.231Z,638
2018-07-31T00:11:22.448Z,639
2018-07-31T00:12:29.664Z,639
2018-07-31T00:13:36.602Z,639
2018-07-31T00:14:43.817Z,639
2018-07-31T00:15:51.030Z,638
2018-07-31T00:16:57.976Z,638
2018-07-31T00:18:05.192Z,637
2018-07-31T00:19:12.405Z,638
2018-07-31T00:20:19.617Z,638
2018-07-31T00:21:26.830Z,638
2018-07-31T00:22:34.041Z,637
2018-07-31T00:23:41.260Z,637
2018-07-31T00:24:48.472Z,638
2018-07-31T00:25:55.681Z,638
2018-07-31T00:27:02.892Z,638
2018-07-31T00:28:09.822Z,638
2018-07-31T00:29:16.755Z,639
2018-07-31T00:30:23.693Z,640
2018-07-31T00:31:30.904Z,639
2018-07-31T00:32:38.119Z,640
2018-07-31T00:33:45.331Z,640
2018-07-31T00:34:52.541Z,639
2018-07-31T00:35:59.757Z,640
2018-07-31T00:37:06.970Z,639
2018-07-31T00:38:14.402Z,639
2018-07-31T00:39:21.616Z,640
2018-07-31T00:40:28.830Z,639
2018-07-31T00:41:36.050Z,639
2018-07-31T00:42:43.260Z,639
2018-07-31T00:43:50.473Z,640
2018-07-31T00:44:57.696Z,639
2018-07-31T00:46:04.906Z,640
2018-07-31T00:47:12.125Z,639
2018-07-31T00:48:19.334Z,639
2018-07-31T00:49:26.267Z,640
2018-07-31T00:50:33.212Z,640
2018-07-31T00:51:40.427Z,640
2018-07-31T00:52:47.646Z,640
2018-07-31T00:53:54.859Z,640
2018-07-31T00:55:02.074Z,640
2018-07-31T00:56:09.298Z,640
2018-07-31T00:57:16.512Z,640
2018-07-31T00:58:23.722Z,639
2018-07-31T00:59:30.931Z,639
2018-07-31T01:00:38.146Z,639
2018-07-31T01:01:45.357Z,639
2018-07-31T01:02:52.571Z,639
2018-07-31T01:03:59.794Z,639
2018-07-31T01:05:06.997Z,638
2018-07-31T01:06:14.207Z,639
2018-07-31T01:07:21.427Z,639
2018-07-31T01:08:28.640Z,640
2018-07-31T01:09:35.851Z,639
2018-07-31T01:10:43.061Z,639
2018-07-31T01:11:50.272Z,639
2018-07-31T01:12:57.493Z,640
2018-07-31T01:14:04.706Z,640
2018-07-31T01:15:11.924Z,640
2018-07-31T01:16:19.136Z,640
2018-07-31T01:17:26.071Z,640
2018-07-31T01:18:33.015Z,640
2018-07-31T01:19:40.228Z,640
2018-07-31T01:20:47.158Z,640
2018-07-31T01:21:54.367Z,639
2018-07-31T01:23:01.581Z,635
2018-07-31T01:24:08.792Z,636
2018-07-31T01:25:16.005Z,637
2018-07-31T01:26:23.213Z,638
2018-07-31T01:27:30.148Z,638
2018-07-31T01:28:37.361Z,638
2018-07-31T01:29:44.579Z,638
2018-07-31T01:30:51.792Z,637
2018-07-31T01:31:58.733Z,639
2018-07-31T01:33:05.942Z,638
2018-07-31T01:34:13.151Z,639
2018-07-31T01:35:20.365Z,639
2018-07-31T01:36:27.576Z,638
2018-07-31T01:37:34.513Z,638
2018-07-31T01:38:41.741Z,638
2018-07-31T01:39:48.948Z,638
2018-07-31T01:40:56.158Z,638
2018-07-31T01:42:03.373Z,638
2018-07-31T01:43:10.583Z,639
2018-07-31T01:44:17.796Z,638
2018-07-31T01:45:25.008Z,638
2018-07-31T01:46:32.222Z,638
2018-07-31T01:47:39.432Z,638
2018-07-31T01:48:46.666Z,639
2018-07-31T01:49:53.610Z,640
2018-07-31T01:51:00.835Z,640
2018-07-31T01:52:08.046Z,641
2018-07-31T01:53:15.262Z,641
2018-07-31T01:54:22.471Z,641
2018-07-31T01:55:29.686Z,641
2018-07-31T01:56:36.896Z,641
2018-07-31T01:57:43.828Z,640
2018-07-31T01:58:51.039Z,641
2018-07-31T01:59:58.252Z,640
2018-07-31T02:01:05.473Z,641
2018-07-31T02:02:12.684Z,641
2018-07-31T02:03:19.892Z,640
2018-07-31T02:04:27.120Z,640
2018-07-31T02:05:34.331Z,640
2018-07-31T02:06:41.546Z,641
2018-07-31T02:07:48.752Z,640
2018-07-31T02:08:55.663Z,641
2018-07-31T02:10:02.877Z,642
2018-07-31T02:11:10.087Z,641
2018-07-31T02:12:17.301Z,641
2018-07-31T02:13:24.514Z,640
2018-07-31T02:14:31.720Z,640
2018-07-31T02:15:38.930Z,639
2018-07-31T02:16:46.147Z,640
2018-07-31T02:17:53.362Z,640
2018-07-31T02:19:00.297Z,640
2018-07-31T02:20:07.508Z,641
2018-07-31T02:21:14.716Z,641
2018-07-31T02:22:21.929Z,640
2018-07-31T02:23:29.139Z,640
2018-07-31T02:24:36.350Z,640
2018-07-31T02:25:43.560Z,641
2018-07-31T02:26:50.776Z,640
2018-07-31T02:27:58.206Z,640
2018-07-31T02:29:05.509Z,640
2018-07-31T02:30:12.719Z,640
2018-07-31T02:31:19.928Z,639
2018-07-31T02:32:27.141Z,639
2018-07-31T02:33:34.354Z,640
2018-07-31T02:34:41.562Z,641
2018-07-31T02:35:48.774Z,641
2018-07-31T02:36:55.989Z,641
2018-07-31T02:38:03.197Z,641
2018-07-31T02:39:10.414Z,642
2018-07-31T02:40:17.632Z,641
2018-07-31T02:41:24.833Z,641
2018-07-31T02:42:32.049Z,641
2018-07-31T02:43:39.265Z,641
2018-07-31T02:44:46.475Z,641
2018-07-31T02:45:53.687Z,640
2018-07-31T02:47:01.302Z,640
2018-07-31T02:48:08.712Z,641
2018-07-31T02:49:15.924Z,641
2018-07-31T02:50:23.138Z,641
2018-07-31T02:51:30.353Z,641
2018-07-31T02:52:37.556Z,641
2018-07-31T02:53:44.774Z,642
2018-07-31T02:54:51.981Z,641
2018-07-31T02:55:59.199Z,642
2018-07-31T02:57:06.407Z,642
2018-07-31T02:58:13.820Z,642
2018-07-31T02:59:21.088Z,643
2018-07-31T03:00:28.302Z,642
2018-07-31T03:01:35.512Z,643
2018-07-31T03:02:42.727Z,642
2018-07-31T03:03:49.936Z,643
2018-07-31T03:04:57.148Z,643
2018-07-31T03:06:04.358Z,643
2018-07-31T03:07:11.565Z,642
2018-07-31T03:08:19.270Z,642
2018-07-31T03:09:26.494Z,643
2018-07-31T03:10:33.708Z,643
2018-07-31T03:11:40.922Z,642
2018-07-31T03:12:47.862Z,642
2018-07-31T03:13:55.077Z,642
2018-07-31T03:15:02.292Z,641
2018-07-31T03:16:09.234Z,640
2018-07-31T03:17:16.449Z,641
2018-07-31T03:18:23.414Z,641
2018-07-31T03:19:30.628Z,641
2018-07-31T03:20:37.840Z,642
2018-07-31T03:21:44.782Z,642
2018-07-31T03:22:51.998Z,642
2018-07-31T03:23:59.210Z,642
2018-07-31T03:25:06.420Z,643
2018-07-31T03:26:13.635Z,642
2018-07-31T03:27:20.872Z,642
2018-07-31T03:28:28.084Z,641
2018-07-31T03:29:35.293Z,640
2018-07-31T03:30:42.225Z,639
2018-07-31T03:31:49.434Z,639
2018-07-31T03:32:56.644Z,640
2018-07-31T03:34:03.850Z,641
2018-07-31T03:35:11.064Z,641
2018-07-31T03:36:18.278Z,641
2018-07-31T03:37:25.211Z,642
2018-07-31T03:38:32.425Z,642
2018-07-31T03:39:39.363Z,642
2018-07-31T03:40:46.580Z,642
2018-07-31T03:41:53.784Z,643
2018-07-31T03:43:00.996Z,642
2018-07-31T03:44:08.207Z,643
2018-07-31T03:45:15.418Z,642
2018-07-31T03:46:22.628Z,642
2018-07-31T03:47:29.847Z,641
2018-07-31T03:48:37.052Z,643
2018-07-31T03:49:43.990Z,642
2018-07-31T03:50:51.202Z,643
2018-07-31T03:51:58.144Z,642
2018-07-31T03:53:05.356Z,642
2018-07-31T03:54:12.573Z,643
2018-07-31T03:55:19.788Z,642
2018-07-31T03:56:26.846Z,642
2018-07-31T03:57:34.189Z,642
2018-07-31T03:58:41.402Z,642
2018-07-31T03:59:48.615Z,642
2018-07-31T04:00:55.836Z,642
2018-07-31T04:02:03.055Z,642
2018-07-31T04:03:10.267Z,641
2018-07-31T04:04:17.209Z,641
2018-07-31T04:05:24.566Z,640
2018-07-31T04:06:31.824Z,641
2018-07-31T04:07:39.034Z,641
2018-07-31T04:08:46.244Z,641
2018-07-31T04:09:53.461Z,641
2018-07-31T04:11:00.673Z,641
2018-07-31T04:12:07.885Z,641
2018-07-31T04:13:15.100Z,640
2018-07-31T04:14:22.310Z,640
2018-07-31T04:15:29.521Z,640
2018-07-31T04:16:36.732Z,641
2018-07-31T04:17:43.942Z,641
2018-07-31T04:18:50.881Z,640
2018-07-31T04:19:58.091Z,640
2018-07-31T04:21:05.303Z,640
2018-07-31T04:22:12.514Z,640
2018-07-31T04:23:19.733Z,640
2018-07-31T04:24:26.950Z,639
2018-07-31T04:25:34.170Z,640
2018-07-31T04:26:41.386Z,640
2018-07-31T04:27:48.602Z,640
2018-07-31T04:28:55.818Z,640
2018-07-31T04:30:03.173Z,640
2018-07-31T04:31:10.425Z,640
2018-07-31T04:32:17.636Z,640
2018-07-31T04:33:24.846Z,640
2018-07-31T04:34:46.719Z,639
2018-07-31T04:35:53.829Z,640
2018-07-31T04:37:01.132Z,639
2018-07-31T04:38:08.072Z,639
2018-07-31T04:39:15.282Z,639
2018-07-31T04:40:22.497Z,639
2018-07-31T04:41:29.434Z,639
2018-07-31T04:42:51.296Z,640
2018-07-31T04:43:58.506Z,638
2018-07-31T04:45:05.723Z,638
2018-07-31T04:46:12.936Z,638
2018-07-31T04:47:20.149Z,638
2018-07-31T04:48:27.359Z,638
2018-07-31T04:49:34.569Z,638
2018-07-31T04:50:41.510Z,638
2018-07-31T04:51:48.453Z,638
2018-07-31T04:52:55.663Z,637
2018-07-31T04:54:02.596Z,636
2018-07-31T04:55:09.260Z,636
2018-07-31T04:56:16.199Z,635
2018-07-31T04:57:23.414Z,635
2018-07-31T04:58:30.627Z,636
2018-07-31T04:59:37.841Z,636
2018-07-31T05:00:45.068Z,636
2018-07-31T05:01:52.290Z,636
2018-07-31T05:02:59.500Z,636
2018-07-31T05:04:06.727Z,636
2018-07-31T05:05:13.941Z,637
2018-07-31T05:06:21.153Z,636
2018-07-31T05:07:28.371Z,636
2018-07-31T05:08:35.581Z,636
2018-07-31T05:09:42.793Z,636
2018-07-31T05:11:04.761Z,637
2018-07-31T05:12:12.108Z,636
2018-07-31T05:13:19.332Z,636
2018-07-31T05:14:26.562Z,636
2018-07-31T05:15:33.517Z,635
2018-07-31T05:16:40.724Z,635
2018-07-31T05:17:47.938Z,635
2018-07-31T05:18:55.152Z,636
2018-07-31T05:20:02.365Z,635
2018-07-31T05:21:09.308Z,635
2018-07-31T05:22:16.519Z,634
2018-07-31T05:23:23.727Z,633
2018-07-31T05:24:30.674Z,634
2018-07-31T05:25:37.888Z,634
2018-07-31T05:26:45.102Z,634
2018-07-31T05:27:52.316Z,634
2018-07-31T05:28:59.528Z,633
2018-07-31T05:30:06.467Z,632
2018-07-31T05:31:13.682Z,633
2018-07-31T05:32:20.915Z,633
2018-07-31T05:33:28.125Z,632
2018-07-31T05:34:35.335Z,632
2018-07-31T05:35:42.545Z,632
2018-07-31T05:36:49.757Z,632
2018-07-31T05:37:56.970Z,631
2018-07-31T05:39:04.179Z,631
2018-07-31T05:40:11.392Z,631
2018-07-31T05:41:18.611Z,631
2018-07-31T05:42:25.554Z,631
2018-07-31T05:43:32.761Z,631
2018-07-31T05:44:39.992Z,633
2018-07-31T05:45:46.935Z,632
2018-07-31T05:46:54.148Z,631
2018-07-31T05:48:01.361Z,631
2018-07-31T05:49:08.313Z,630
2018-07-31T05:50:15.248Z,630
2018-07-31T05:51:22.464Z,629
2018-07-31T05:52:29.402Z,629
2018-07-31T05:53:36.621Z,628
2018-07-31T05:54:43.849Z,628
2018-07-31T05:55:50.795Z,629
2018-07-31T05:56:58.016Z,628
2018-07-31T05:58:05.234Z,627
2018-07-31T05:59:12.462Z,627
2018-07-31T06:00:19.675Z,626
2018-07-31T06:01:26.891Z,626
2018-07-31T06:02:33.830Z,626
2018-07-31T06:03:41.259Z,626
2018-07-31T06:04:48.476Z,626
2018-07-31T06:05:55.698Z,626
2018-07-31T06:07:02.919Z,626
2018-07-31T06:08:10.135Z,626
2018-07-31T06:09:17.350Z,626
2018-07-31T06:10:24.560Z,625
2018-07-31T06:11:31.773Z,625
2018-07-31T06:12:38.989Z,624
2018-07-31T06:13:45.926Z,624
2018-07-31T06:14:53.142Z,623
2018-07-31T06:16:00.359Z,624
2018-07-31T06:17:07.571Z,623
2018-07-31T06:18:14.790Z,623
2018-07-31T06:19:21.727Z,623
2018-07-31T06:20:28.937Z,623
2018-07-31T06:21:35.880Z,622
2018-07-31T06:22:43.097Z,622
2018-07-31T06:23:50.311Z,623
2018-07-31T06:24:57.530Z,623
2018-07-31T06:26:04.757Z,622
2018-07-31T06:27:11.975Z,623
2018-07-31T06:28:19.189Z,622
2018-07-31T06:29:26.402Z,622
2018-07-31T06:30:33.614Z,622
2018-07-31T06:31:40.837Z,620
2018-07-31T06:32:48.168Z,621
2018-07-31T06:33:55.398Z,621
2018-07-31T06:35:02.619Z,621
2018-07-31T06:36:09.836Z,621
2018-07-31T06:37:17.280Z,621
2018-07-31T06:38:24.478Z,621
2018-07-31T06:39:31.700Z,621
2018-07-31T06:40:38.932Z,621
2018-07-31T06:41:46.155Z,620
2018-07-31T06:42:53.364Z,619
2018-07-31T06:44:00.587Z,620
2018-07-31T06:45:07.527Z,620
2018-07-31T06:46:14.744Z,620
2018-07-31T06:47:21.409Z,620
2018-07-31T06:48:28.622Z,620
2018-07-31T06:49:35.838Z,619
2018-07-31T06:50:43.060Z,619
2018-07-31T06:51:50.277Z,619
2018-07-31T06:52:57.223Z,619
2018-07-31T06:54:04.437Z,619
2018-07-31T06:55:11.657Z,620
2018-07-31T06:56:18.873Z,621
2018-07-31T06:57:26.093Z,620
2018-07-31T06:58:33.048Z,620
2018-07-31T06:59:40.267Z,619
2018-07-31T07:00:47.492Z,620
2018-07-31T07:01:54.710Z,620
2018-07-31T07:03:01.930Z,620
2018-07-31T07:04:09.144Z,620
2018-07-31T07:05:16.370Z,619
2018-07-31T07:06:23.583Z,619
2018-07-31T07:07:30.799Z,620
2018-07-31T07:08:38.021Z,619
2018-07-31T07:09:45.237Z,618
2018-07-31T07:10:52.455Z,618
2018-07-31T07:11:59.673Z,618
2018-07-31T07:13:06.894Z,619
2018-07-31T07:14:14.112Z,619
2018-07-31T07:15:21.426Z,618
2018-07-31T07:16:28.438Z,617
2018-07-31T07:17:35.382Z,617
2018-07-31T07:18:42.593Z,616
2018-07-31T07:19:49.818Z,616
2018-07-31T07:20:57.035Z,614
2018-07-31T07:22:04.252Z,615
2018-07-31T07:23:11.480Z,614
2018-07-31T07:24:18.435Z,614
2018-07-31T07:25:25.654Z,616
2018-07-31T07:26:32.871Z,617
2018-07-31T07:27:40.090Z,616
2018-07-31T07:28:47.305Z,616
2018-07-31T07:29:54.523Z,615
2018-07-31T07:31:01.744Z,614
2018-07-31T07:32:08.961Z,615
2018-07-31T07:33:16.205Z,615
2018-07-31T07:34:23.420Z,615
2018-07-31T07:35:30.641Z,613
2018-07-31T07:36:37.856Z,614
2018-07-31T07:37:45.071Z,613
2018-07-31T07:38:52.288Z,613
2018-07-31T07:39:59.236Z,613
2018-07-31T07:41:06.457Z,613
2018-07-31T07:42:13.674Z,612
2018-07-31T07:43:20.896Z,613
2018-07-31T07:44:28.110Z,613
2018-07-31T07:45:35.326Z,613
2018-07-31T07:46:42.546Z,613
2018-07-31T07:47:49.764Z,613
2018-07-31T07:48:56.989Z,613
2018-07-31T07:50:04.209Z,612
2018-07-31T07:51:11.431Z,613
2018-07-31T07:52:18.645Z,613
2018-07-31T07:53:25.585Z,611
2018-07-31T07:54:32.805Z,612
2018-07-31T07:55:40.017Z,612
2018-07-31T07:56:47.240Z,611
2018-07-31T07:57:54.171Z,612
2018-07-31T07:59:01.112Z,613
2018-07-31T08:00:08.084Z,613
2018-07-31T08:01:15.303Z,613
2018-07-31T08:02:22.520Z,613
2018-07-31T08:03:29.740Z,614
2018-07-31T08:04:36.964Z,613
2018-07-31T08:05:44.209Z,612
2018-07-31T08:06:51.428Z,613
2018-07-31T08:07:58.379Z,613
2018-07-31T08:09:05.597Z,614
2018-07-31T08:10:12.545Z,615
2018-07-31T08:11:19.762Z,614
2018-07-31T08:12:26.992Z,614
2018-07-31T08:13:34.217Z,613
2018-07-31T08:14:41.437Z,612
2018-07-31T08:15:48.656Z,611
2018-07-31T08:16:55.879Z,610
2018-07-31T08:18:03.099Z,610
2018-07-31T08:19:10.318Z,609
2018-07-31T08:20:17.614Z,606
2018-07-31T08:21:24.844Z,606
2018-07-31T08:22:32.112Z,605
2018-07-31T08:23:39.379Z,602
2018-07-31T08:24:46.599Z,603
2018-07-31T08:25:53.828Z,603
2018-07-31T08:27:01.044Z,604
2018-07-31T08:28:08.286Z,606
2018-07-31T08:29:15.508Z,607
2018-07-31T08:30:22.723Z,607
2018-07-31T08:31:29.942Z,607
2018-07-31T08:32:37.156Z,607
2018-07-31T08:33:44.376Z,608
2018-07-31T08:34:51.595Z,609
2018-07-31T08:35:58.812Z,609
2018-07-31T08:37:06.032Z,611
2018-07-31T08:38:12.988Z,610
2018-07-31T08:39:20.205Z,608
2018-07-31T08:40:27.435Z,607
2018-07-31T08:41:34.658Z,606
2018-07-31T08:42:41.874Z,607
2018-07-31T08:43:49.097Z,607
2018-07-31T08:44:56.320Z,607
2018-07-31T08:46:03.538Z,607
2018-07-31T08:47:10.760Z,607
2018-07-31T08:48:17.981Z,606
2018-07-31T08:49:25.200Z,606
2018-07-31T08:50:32.422Z,608
2018-07-31T08:51:39.642Z,607
2018-07-31T08:52:46.863Z,608
2018-07-31T08:53:54.086Z,608
2018-07-31T08:55:01.325Z,607
2018-07-31T08:56:08.550Z,607
2018-07-31T08:57:15.495Z,607
2018-07-31T08:58:22.446Z,610
2018-07-31T08:59:29.665Z,608
2018-07-31T09:00:36.885Z,609
2018-07-31T09:01:44.113Z,608
2018-07-31T09:02:51.531Z,608
2018-07-31T09:03:58.539Z,605
2018-07-31T09:05:05.768Z,603
2018-07-31T09:06:12.990Z,603
2018-07-31T09:07:20.212Z,603
2018-07-31T09:08:27.920Z,601
2018-07-31T09:09:35.402Z,603
2018-07-31T09:10:42.631Z,603
2018-07-31T09:11:49.856Z,605
2018-07-31T09:12:57.081Z,606
2018-07-31T09:14:04.306Z,605
2018-07-31T09:15:11.527Z,606
2018-07-31T09:16:18.761Z,605
2018-07-31T09:17:25.776Z,605
2018-07-31T09:18:33.056Z,604
2018-07-31T09:19:40.281Z,604
2018-07-31T09:20:47.521Z,603
2018-07-31T09:21:54.744Z,602
2018-07-31T09:23:01.968Z,601
2018-07-31T09:24:09.209Z,601
2018-07-31T09:25:16.433Z,600
2018-07-31T09:26:23.651Z,598
2018-07-31T09:27:30.870Z,596
2018-07-31T09:28:38.093Z,595
2018-07-31T09:29:45.322Z,594
2018-07-31T09:30:53.000Z,592
2018-07-31T09:32:00.728Z,589
2018-07-31T09:33:07.940Z,588
2018-07-31T09:34:15.168Z,586
2018-07-31T09:35:22.418Z,588
2018-07-31T09:36:29.772Z,588
2018-07-31T09:37:37.074Z,591
2018-07-31T09:38:44.294Z,591
2018-07-31T09:39:51.517Z,594
2018-07-31T09:40:58.738Z,594
2018-07-31T09:42:05.692Z,591
2018-07-31T09:43:12.948Z,591
2018-07-31T09:44:20.152Z,592
2018-07-31T09:45:27.386Z,592
2018-07-31T09:46:34.608Z,591
2018-07-31T09:47:41.834Z,591
2018-07-31T09:48:49.058Z,591
2018-07-31T09:49:56.293Z,590
2018-07-31T09:51:03.516Z,590
2018-07-31T09:52:10.738Z,590
2018-07-31T09:53:17.966Z,593
2018-07-31T09:54:25.195Z,591
2018-07-31T09:55:32.417Z,593
2018-07-31T09:56:39.856Z,592
2018-07-31T09:57:47.082Z,595
2018-07-31T09:58:54.305Z,596
2018-07-31T10:00:01.269Z,595
2018-07-31T10:01:08.483Z,594
2018-07-31T10:02:15.718Z,592
2018-07-31T10:03:22.956Z,592
2018-07-31T10:04:30.182Z,590
2018-07-31T10:05:37.407Z,586
2018-07-31T10:06:44.657Z,584
2018-07-31T10:07:51.885Z,579
2018-07-31T10:08:59.115Z,576
2018-07-31T10:10:06.069Z,571
2018-07-31T10:11:13.297Z,568
2018-07-31T10:12:20.520Z,567
2018-07-31T10:13:27.752Z,570
2018-07-31T10:14:34.974Z,573
2018-07-31T10:15:42.199Z,574
2018-07-31T10:16:49.427Z,567
2018-07-31T10:17:56.921Z,568
2018-07-31T10:19:03.807Z,568
2018-07-31T10:20:25.686Z,568
2018-07-31T10:21:32.912Z,569
2018-07-31T10:22:40.138Z,569
2018-07-31T10:23:47.088Z,565
2018-07-31T10:24:54.317Z,560
2018-07-31T10:26:01.544Z,556
2018-07-31T10:27:08.769Z,557
2018-07-31T10:28:15.994Z,561
2018-07-31T10:29:23.218Z,560
2018-07-31T10:30:30.500Z,559
2018-07-31T10:31:37.773Z,559
2018-07-31T10:32:44.995Z,564
2018-07-31T10:33:52.218Z,568
2018-07-31T10:34:59.440Z,567
2018-07-31T10:36:06.667Z,565
2018-07-31T10:37:13.891Z,562
2018-07-31T10:38:21.113Z,567
2018-07-31T10:39:28.337Z,565
2018-07-31T10:40:35.590Z,559
2018-07-31T10:41:42.811Z,560
2018-07-31T10:42:50.040Z,554
2018-07-31T10:43:57.333Z,552
2018-07-31T10:45:04.588Z,553
2018-07-31T10:46:11.812Z,552
2018-07-31T10:47:19.037Z,555
2018-07-31T10:48:26.267Z,552
2018-07-31T10:49:33.498Z,553
2018-07-31T10:50:40.961Z,549
2018-07-31T10:51:48.253Z,543
2018-07-31T10:52:55.515Z,540
2018-07-31T10:54:02.754Z,540
2018-07-31T10:55:10.241Z,542
2018-07-31T10:56:17.734Z,541
2018-07-31T10:57:24.959Z,539
2018-07-31T10:58:32.512Z,539
2018-07-31T10:59:40.184Z,542
2018-07-31T11:00:47.526Z,540
2018-07-31T11:01:54.751Z,544
2018-07-31T11:03:02.078Z,551
2018-07-31T11:04:09.427Z,551
2018-07-31T11:05:16.667Z,552
2018-07-31T11:06:24.232Z,553
2018-07-31T11:07:31.595Z,560
2018-07-31T11:08:38.817Z,556
2018-07-31T11:09:45.773Z,556
2018-07-31T11:10:53.000Z,561
2018-07-31T11:11:59.972Z,558
2018-07-31T11:13:07.252Z,560
2018-07-31T11:14:14.497Z,557
2018-07-31T11:15:21.729Z,556
2018-07-31T11:16:28.958Z,559
2018-07-31T11:17:36.185Z,549
2018-07-31T11:18:43.412Z,546
2018-07-31T11:19:50.362Z,545
2018-07-31T11:20:57.799Z,545
2018-07-31T11:22:05.124Z,547
2018-07-31T11:23:12.350Z,546
2018-07-31T11:24:19.301Z,546
2018-07-31T11:25:26.534Z,551
2018-07-31T11:26:33.761Z,554
2018-07-31T11:27:40.985Z,548
2018-07-31T11:28:48.207Z,551
2018-07-31T11:29:55.432Z,552
2018-07-31T11:31:02.665Z,549
2018-07-31T11:32:09.656Z,554
2018-07-31T11:33:16.896Z,556
2018-07-31T11:34:24.124Z,551
2018-07-31T11:35:31.350Z,549
2018-07-31T11:36:38.581Z,543
2018-07-31T11:37:45.805Z,537
2018-07-31T11:38:52.872Z,533
2018-07-31T11:39:59.560Z,532
2018-07-31T11:41:06.801Z,536
2018-07-31T11:42:14.023Z,553
2018-07-31T11:43:21.247Z,556
2018-07-31T11:44:28.482Z,557
2018-07-31T11:45:35.418Z,550
2018-07-31T11:46:42.646Z,549
2018-07-31T11:47:49.870Z,546
2018-07-31T11:48:57.096Z,545
2018-07-31T11:50:04.920Z,542
2018-07-31T11:51:12.170Z,536
2018-07-31T11:52:19.409Z,533
2018-07-31T11:53:26.639Z,542
2018-07-31T11:54:33.862Z,542
2018-07-31T11:55:41.089Z,541
2018-07-31T11:56:48.313Z,546
2018-07-31T11:57:55.544Z,550
2018-07-31T11:59:02.510Z,557
2018-07-31T22:00:07.151Z,627
2018-07-31T22:01:14.401Z,623
2018-07-31T22:02:21.621Z,622
2018-07-31T22:03:28.565Z,622
2018-07-31T22:04:35.778Z,620
2018-07-31T22:05:43.021Z,621
2018-07-31T22:06:50.292Z,620
2018-07-31T22:07:57.514Z,620
2018-07-31T22:09:04.723Z,620
2018-07-31T22:10:11.938Z,619
2018-07-31T22:11:19.156Z,619
2018-07-31T22:12:26.382Z,619
2018-07-31T22:13:33.598Z,619
2018-07-31T22:14:40.814Z,619
2018-07-31T22:15:48.038Z,618
2018-07-31T22:16:55.251Z,617
2018-07-31T22:18:02.479Z,617
2018-07-31T22:19:09.688Z,617
2018-07-31T22:20:16.625Z,617
2018-07-31T22:21:23.846Z,617
2018-07-31T22:22:31.063Z,617
2018-07-31T22:23:38.289Z,618
2018-07-31T22:24:45.656Z,617
2018-07-31T22:25:52.864Z,617
2018-07-31T22:27:00.084Z,618
2018-07-31T22:28:07.297Z,617
2018-07-31T22:29:14.546Z,617
2018-07-31T22:30:21.767Z,617
2018-07-31T22:31:28.981Z,616
2018-07-31T22:32:36.200Z,616
2018-07-31T22:33:43.413Z,616
2018-07-31T22:34:50.626Z,616
2018-07-31T22:35:57.844Z,615
2018-07-31T22:37:05.062Z,615
2018-07-31T22:38:12.279Z,615
2018-07-31T22:39:19.498Z,615
2018-07-31T22:40:26.714Z,615
2018-07-31T22:41:33.930Z,616
2018-07-31T22:42:41.150Z,615
2018-07-31T22:43:48.368Z,615
2018-07-31T22:44:55.584Z,616
2018-07-31T22:46:02.801Z,617
2018-07-31T22:47:10.018Z,617
2018-07-31T22:48:16.959Z,616
2018-07-31T22:49:24.173Z,616
2018-07-31T22:50:31.386Z,616
2018-07-31T22:51:38.603Z,616
2018-07-31T22:52:45.862Z,616
2018-07-31T22:53:52.794Z,617
2018-07-31T22:55:00.012Z,615
2018-07-31T22:56:06.951Z,615
2018-07-31T22:57:14.164Z,616
2018-07-31T22:58:21.101Z,615
2018-07-31T22:59:28.314Z,615
2018-07-31T23:00:35.534Z,615
2018-07-31T23:01:42.746Z,615
2018-07-31T23:02:49.963Z,615
2018-07-31T23:03:57.196Z,615
2018-07-31T23:05:04.413Z,615
2018-07-31T23:06:11.629Z,615
2018-07-31T23:07:18.908Z,616
2018-07-31T23:08:26.183Z,616
2018-07-31T23:09:33.396Z,616
2018-07-31T23:10:40.611Z,616
2018-07-31T23:11:47.828Z,616
2018-07-31T23:12:55.049Z,616
2018-07-31T23:14:02.349Z,616
2018-07-31T23:15:09.620Z,615
2018-07-31T23:16:16.562Z,616
2018-07-31T23:17:23.776Z,615
2018-07-31T23:18:30.990Z,616
2018-07-31T23:19:38.202Z,616
2018-07-31T23:20:45.578Z,615
2018-07-31T23:21:52.838Z,616
2018-07-31T23:23:00.061Z,614
2018-07-31T23:24:07.272Z,614
2018-07-31T23:25:14.497Z,614
2018-07-31T23:26:21.707Z,614
2018-07-31T23:27:28.921Z,614
2018-07-31T23:28:36.296Z,614
2018-07-31T23:29:43.503Z,614
2018-07-31T23:30:50.721Z,615
2018-07-31T23:31:57.938Z,614
2018-07-31T23:33:05.155Z,614
2018-07-31T23:34:12.098Z,615
2018-07-31T23:35:19.315Z,614
2018-07-31T23:36:26.531Z,615
2018-07-31T23:37:33.745Z,614
2018-07-31T23:38:40.959Z,614
2018-07-31T23:39:48.175Z,614
2018-07-31T23:40:55.389Z,614
2018-07-31T23:42:02.604Z,614
2018-07-31T23:43:09.821Z,613
2018-07-31T23:44:17.034Z,614
2018-07-31T23:45:23.979Z,614
2018-07-31T23:46:31.195Z,614
2018-07-31T23:47:38.417Z,615
2018-07-31T23:48:45.629Z,615
2018-07-31T23:49:52.577Z,615
2018-07-31T23:50:59.796Z,615
2018-07-31T23:52:07.010Z,614
2018-07-31T23:53:14.227Z,615
2018-07-31T23:54:21.451Z,615
2018-07-31T23:55:28.668Z,614
2018-07-31T23:56:36.123Z,615
2018-07-31T23:57:43.321Z,615
2018-07-31T23:58:50.541Z,616
2018-07-31T23:59:57.747Z,614
